createdAt,value
2023-04-05T00:02:18.577Z,19.10
2023-04-05T00:05:40.935Z,19.00
2023-04-05T00:09:04.613Z,19.10
2023-04-05T00:12:26.975Z,19.10
2023-04-05T00:15:49.959Z,19.10
2023-04-05T00:19:12.975Z,19.10
2023-04-05T00:22:36.947Z,19.10
2023-04-05T00:25:59.185Z,19.10
2023-04-05T00:29:21.478Z,19.00
2023-04-05T00:32:43.797Z,19.00
2023-04-05T00:36:24.343Z,19.00
2023-04-05T00:39:46.712Z,19.00
2023-04-05T00:43:09.025Z,19.00
2023-04-05T00:46:34.757Z,19.00
2023-04-05T00:49:57.376Z,19.00
2023-04-05T00:53:20.730Z,19.00
2023-04-05T00:56:43.464Z,19.00
2023-04-05T01:00:09.528Z,19.00
2023-04-05T01:03:34.679Z,19.00
2023-04-05T01:07:00.542Z,19.00
2023-04-05T01:10:28.713Z,18.90
2023-04-05T01:13:51.075Z,19.00
2023-04-05T01:17:13.515Z,18.90
2023-04-05T01:20:40.917Z,19.00
2023-04-05T01:24:46.804Z,18.90
2023-04-05T01:28:33.293Z,18.90
2023-04-05T01:32:09.202Z,18.90
2023-04-05T01:35:31.481Z,18.90
2023-04-05T01:38:56.139Z,18.80
2023-04-05T01:42:27.451Z,18.80
2023-04-05T01:45:49.765Z,18.80
2023-04-05T01:49:11.972Z,18.80
2023-04-05T01:52:34.279Z,18.80
2023-04-05T01:56:01.600Z,18.80
2023-04-05T01:59:24.396Z,18.80
2023-04-05T02:02:47.127Z,18.80
2023-04-05T02:06:11.331Z,18.80
2023-04-05T02:09:33.753Z,18.80
2023-04-05T02:12:56.625Z,18.80
2023-04-05T02:16:18.873Z,18.80
2023-04-05T02:19:41.387Z,18.80
2023-04-05T02:23:03.743Z,18.80
2023-04-05T02:26:26.246Z,18.70
2023-04-05T02:29:48.518Z,18.70
2023-04-05T02:33:10.878Z,18.80
2023-04-05T02:36:34.390Z,18.70
2023-04-05T02:39:58.274Z,18.70
2023-04-05T02:43:20.611Z,18.70
2023-04-05T02:46:44.748Z,18.70
2023-04-05T02:50:08.305Z,18.70
2023-04-05T02:53:36.695Z,18.70
2023-04-05T02:57:03.374Z,18.70
2023-04-05T03:00:35.011Z,18.70
2023-04-05T03:03:58.293Z,18.70
2023-04-05T03:07:22.102Z,18.60
2023-04-05T03:10:47.680Z,18.60
2023-04-05T03:14:12.656Z,18.60
2023-04-05T03:17:39.584Z,18.60
2023-04-05T03:21:01.977Z,18.60
2023-04-05T03:24:24.973Z,18.60
2023-04-05T03:27:50.069Z,18.60
2023-04-05T03:31:13.737Z,18.60
2023-04-05T03:34:36.522Z,18.60
2023-04-05T03:38:00.567Z,18.50
2023-04-05T03:41:23.659Z,18.60
2023-04-05T03:44:47.849Z,18.50
2023-04-05T03:48:10.419Z,18.60
2023-04-05T03:51:33.475Z,18.60
2023-04-05T03:54:55.978Z,18.50
2023-04-05T03:58:19.586Z,18.50
2023-04-05T04:01:42.403Z,18.50
2023-04-05T04:05:06.431Z,18.50
2023-04-05T04:08:29.898Z,18.50
2023-04-05T04:11:54.563Z,18.50
2023-04-05T04:15:17.904Z,18.50
2023-04-05T04:18:55.791Z,18.50
2023-04-05T04:22:38.704Z,18.50
2023-04-05T04:26:29.261Z,18.60
2023-04-05T04:30:10.577Z,18.70
2023-04-05T04:33:53.399Z,18.80
2023-04-05T04:37:47.328Z,18.80
2023-04-05T04:41:26.760Z,18.80
2023-04-05T04:45:07.898Z,18.90
2023-04-05T04:48:42.457Z,18.90
2023-04-05T04:52:19.593Z,18.90
2023-04-05T04:55:42.477Z,19.00
2023-04-05T04:59:04.928Z,19.00
2023-04-05T05:02:29.885Z,19.00
2023-04-05T05:05:53.752Z,19.00
2023-04-05T05:09:19.629Z,19.10
2023-04-05T05:12:48.770Z,19.10
2023-04-05T05:16:11.674Z,19.10
2023-04-05T05:19:34.025Z,19.10
2023-04-05T05:22:56.375Z,19.10
2023-04-05T05:26:18.579Z,19.20
2023-04-05T05:29:40.898Z,19.20
2023-04-05T05:33:03.712Z,19.30
2023-04-05T05:36:25.985Z,19.30
2023-04-05T05:39:48.185Z,19.30
2023-04-05T05:43:11.076Z,19.40
2023-04-05T05:46:33.581Z,19.40
2023-04-05T05:49:56.255Z,19.40
2023-04-05T05:53:18.486Z,19.30
2023-04-05T05:56:40.754Z,19.40
2023-04-05T06:00:05.572Z,19.40
2023-04-05T06:03:34.128Z,19.40
2023-04-05T06:06:57.713Z,19.50
2023-04-05T06:10:20.305Z,19.60
2023-04-05T06:13:42.504Z,19.60
2023-04-05T06:17:04.753Z,19.60
2023-04-05T06:20:27.138Z,19.60
2023-04-05T06:23:49.529Z,19.60
2023-04-05T06:27:14.566Z,19.50
2023-04-05T06:30:37.173Z,19.50
2023-04-05T06:33:59.501Z,19.50
2023-04-05T06:37:21.915Z,19.40
2023-04-05T06:40:44.427Z,19.40
2023-04-05T06:44:06.768Z,19.40
2023-04-05T06:47:29.057Z,19.30
2023-04-05T06:51:02.298Z,19.20
2023-04-05T06:54:24.937Z,19.30
2023-04-05T06:57:47.158Z,19.40
2023-04-05T07:01:09.472Z,19.50
2023-04-05T07:04:36.810Z,19.50
2023-04-05T07:07:59.337Z,19.40
2023-04-05T07:11:21.613Z,19.40
2023-04-05T07:14:43.923Z,19.40
2023-04-05T07:18:06.768Z,19.40
2023-04-05T07:21:30.739Z,19.30
2023-04-05T07:24:53.431Z,19.40
2023-04-05T07:28:15.620Z,19.40
2023-04-05T07:31:39.625Z,19.40
2023-04-05T07:35:01.918Z,19.30
2023-04-05T07:38:24.667Z,19.30
2023-04-05T07:41:46.983Z,19.30
2023-04-05T07:45:09.538Z,19.30
2023-04-05T07:48:32.007Z,19.30
2023-04-05T07:51:56.008Z,19.30
2023-04-05T07:55:18.345Z,19.30
2023-04-05T07:58:41.130Z,19.30
2023-04-05T08:02:12.388Z,19.30
2023-04-05T08:05:37.001Z,19.30
2023-04-05T08:08:59.306Z,19.30
2023-04-05T08:12:21.531Z,19.30
2023-04-05T08:15:43.758Z,19.30
2023-04-05T08:19:06.067Z,19.30
2023-04-05T08:22:29.383Z,19.30
2023-04-05T08:25:52.567Z,19.30
2023-04-05T08:29:14.914Z,19.40
2023-04-05T08:32:37.245Z,19.40
2023-04-05T08:36:08.138Z,19.40
2023-04-05T08:39:30.749Z,19.40
2023-04-05T08:43:01.276Z,19.40
2023-04-05T08:46:24.355Z,19.40
2023-04-05T08:49:46.770Z,19.40
2023-04-05T08:53:12.296Z,19.40
2023-04-05T08:56:35.896Z,19.40
2023-04-05T09:00:01.372Z,19.40
2023-04-05T09:03:29.058Z,19.30
2023-04-05T09:06:52.470Z,19.40
2023-04-05T09:10:15.580Z,19.30
2023-04-05T09:13:37.823Z,19.40
2023-04-05T09:17:03.350Z,19.40
2023-04-05T09:20:25.801Z,19.40
2023-04-05T09:23:53.362Z,19.30
2023-04-05T09:27:19.971Z,19.40
2023-04-05T09:30:50.610Z,19.30
2023-04-05T09:34:22.146Z,19.30
2023-04-05T09:37:57.807Z,19.40
2023-04-05T09:41:21.622Z,19.40
2023-04-05T09:44:53.407Z,19.50
2023-04-05T09:48:15.789Z,19.50
2023-04-05T09:51:38.851Z,19.50
2023-04-05T09:55:06.863Z,19.50
2023-04-05T09:58:32.614Z,19.50
2023-04-05T10:01:55.461Z,19.50
2023-04-05T10:05:17.700Z,19.50
2023-04-05T10:08:39.959Z,19.60
2023-04-05T10:12:03.882Z,19.60
2023-04-05T10:15:26.906Z,19.60
2023-04-05T10:18:53.568Z,19.60
2023-04-05T10:22:22.910Z,19.60
2023-04-05T10:25:58.978Z,19.60
2023-04-05T10:29:28.020Z,19.60
2023-04-05T10:33:08.204Z,19.60
2023-04-05T10:36:49.573Z,19.50
2023-04-05T10:40:13.003Z,19.60
2023-04-05T10:43:37.599Z,19.60
2023-04-05T10:47:01.547Z,19.60
2023-04-05T10:50:24.989Z,19.60
2023-04-05T10:53:49.276Z,19.60
2023-04-05T10:57:13.544Z,19.60
2023-04-05T11:00:36.130Z,19.60
2023-04-05T11:04:14.748Z,19.60
2023-04-05T11:07:44.828Z,19.60
2023-04-05T11:11:07.733Z,19.60
2023-04-05T11:14:37.598Z,19.60
2023-04-05T11:18:06.161Z,19.60
2023-04-05T11:21:31.370Z,19.60
2023-04-05T11:24:56.561Z,19.60
2023-04-05T11:28:42.086Z,19.60
2023-04-05T11:32:12.622Z,19.60
2023-04-05T11:35:35.214Z,19.60
2023-04-05T11:39:23.948Z,19.60
2023-04-05T11:42:46.457Z,19.60
2023-04-05T11:46:08.788Z,19.60
2023-04-05T11:49:31.052Z,19.60
2023-04-05T11:53:19.570Z,19.60
2023-04-05T11:56:42.473Z,19.60
2023-04-05T12:00:05.182Z,19.60
2023-04-05T12:03:34.482Z,19.60
2023-04-05T12:07:29.729Z,19.60
2023-04-05T12:11:01.365Z,19.60
2023-04-05T12:14:23.906Z,19.60
2023-04-05T12:17:50.451Z,19.60
2023-04-05T12:21:13.081Z,19.60
2023-04-05T12:24:35.977Z,19.60
2023-04-05T12:28:05.710Z,19.60
2023-04-05T12:31:44.751Z,19.60
2023-04-05T12:35:11.888Z,19.60
2023-04-05T12:38:37.487Z,19.60
2023-04-05T12:42:01.085Z,19.60
2023-04-05T12:45:23.893Z,19.70
2023-04-05T12:48:51.687Z,19.70
2023-04-05T12:52:20.819Z,19.60
2023-04-05T12:55:48.002Z,19.60
2023-04-05T12:59:10.496Z,19.60
2023-04-05T13:02:32.850Z,19.60
2023-04-05T13:05:55.333Z,19.60
2023-04-05T13:09:17.622Z,19.60
2023-04-05T13:12:40.169Z,19.60
2023-04-05T13:16:02.501Z,19.60
2023-04-05T13:19:24.965Z,19.60
2023-04-05T13:22:47.833Z,19.60
2023-04-05T13:26:10.074Z,19.60
2023-04-05T13:29:32.300Z,19.60
2023-04-05T13:32:54.600Z,19.60
2023-04-05T13:36:17.018Z,19.70
2023-04-05T13:39:39.313Z,19.60
2023-04-05T13:43:01.651Z,19.60
2023-04-05T13:46:23.903Z,19.60
2023-04-05T13:49:46.468Z,19.60
2023-04-05T13:53:08.758Z,19.60
2023-04-05T13:56:31.009Z,19.60
2023-04-05T13:59:53.368Z,19.60
2023-04-05T14:03:15.835Z,19.60
2023-04-05T14:06:38.503Z,19.60
2023-04-05T14:10:00.810Z,19.60
2023-04-05T14:13:23.344Z,19.60
2023-04-05T14:16:45.923Z,19.60
2023-04-05T14:20:08.558Z,19.50
2023-04-05T14:23:30.940Z,19.60
2023-04-05T14:26:53.195Z,19.50
2023-04-05T14:30:15.694Z,19.50
2023-04-05T14:33:38.139Z,19.50
2023-04-05T14:37:00.915Z,19.50
2023-04-05T14:40:23.360Z,19.50
2023-04-05T14:43:46.022Z,19.50
2023-04-05T14:47:08.289Z,19.50
2023-04-05T14:50:32.533Z,19.50
2023-04-05T14:53:54.768Z,19.50
2023-04-05T14:57:17.086Z,19.50
2023-04-05T15:00:39.714Z,19.50
2023-04-05T15:04:02.333Z,19.50
2023-04-05T15:07:24.670Z,19.60
2023-04-05T15:10:47.215Z,19.50
2023-04-05T15:14:15.377Z,19.50
2023-04-05T15:17:40.723Z,19.50
2023-04-05T15:21:03.236Z,19.50
2023-04-05T15:24:25.751Z,19.50
2023-04-05T15:27:48.040Z,19.50
2023-04-05T15:31:10.589Z,19.50
2023-04-05T15:34:32.924Z,19.50
2023-04-05T15:37:55.619Z,19.50
2023-04-05T15:41:17.865Z,19.50
2023-04-05T15:44:40.376Z,19.50
2023-04-05T15:48:02.911Z,19.50
2023-04-05T15:51:25.456Z,19.50
2023-04-05T15:54:47.790Z,19.50
2023-04-05T15:58:10.259Z,19.50
2023-04-05T16:01:32.555Z,19.50
2023-04-05T16:04:54.929Z,19.50
2023-04-05T16:08:17.154Z,19.50
2023-04-05T16:11:39.569Z,19.40
2023-04-05T16:15:01.837Z,19.40
2023-04-05T16:18:25.860Z,19.50
2023-04-05T16:21:48.178Z,19.50
2023-04-05T16:25:10.544Z,19.40
2023-04-05T16:28:35.532Z,19.40
2023-04-05T16:31:58.067Z,19.40
2023-04-05T16:35:20.595Z,19.40
2023-04-05T16:38:43.852Z,19.40
2023-04-05T16:42:07.973Z,19.40
2023-04-05T16:45:32.010Z,19.40
2023-04-05T16:48:54.309Z,19.40
2023-04-05T16:52:16.677Z,19.40
2023-04-05T16:55:38.964Z,19.40
2023-04-05T16:59:03.135Z,19.40
2023-04-05T17:02:26.950Z,19.40
2023-04-05T17:05:49.345Z,19.40
2023-04-05T17:09:11.907Z,19.40
2023-04-05T17:12:35.203Z,19.40
2023-04-05T17:15:57.510Z,19.30
2023-04-05T17:19:19.877Z,19.40
2023-04-05T17:22:42.150Z,19.40
2023-04-05T17:26:04.630Z,19.40
2023-04-05T17:29:26.869Z,19.50
2023-04-05T17:32:49.272Z,19.50
2023-04-05T17:36:12.528Z,19.50
2023-04-05T17:39:34.844Z,19.50
2023-04-05T17:42:57.188Z,19.50
2023-04-05T17:46:27.339Z,19.50
2023-04-05T17:49:56.622Z,19.50
2023-04-05T17:53:18.999Z,19.50
2023-04-05T17:56:41.477Z,19.60
2023-04-05T18:00:04.977Z,19.60
2023-04-05T18:03:30.276Z,19.40
2023-04-05T18:06:52.708Z,19.40
2023-04-05T18:10:15.440Z,19.10
2023-04-05T18:13:37.768Z,18.70
2023-04-05T18:17:00.382Z,18.50
2023-04-05T18:20:22.748Z,18.50
2023-04-05T18:23:45.160Z,18.50
2023-04-05T18:27:07.498Z,18.40
2023-04-05T18:30:29.812Z,18.40
2023-04-05T18:33:52.151Z,18.40
2023-04-05T18:37:14.424Z,18.40
2023-04-05T18:40:36.704Z,18.60
2023-04-05T18:43:59.332Z,18.90
2023-04-05T18:47:21.729Z,19.20
2023-04-05T18:50:44.302Z,19.30
2023-04-05T18:54:06.698Z,19.30
2023-04-05T18:57:29.342Z,19.40
2023-04-05T19:00:51.738Z,19.40
2023-04-05T19:04:16.200Z,19.50
2023-04-05T19:07:38.529Z,19.50
2023-04-05T19:11:00.912Z,19.60
2023-04-05T19:14:23.871Z,19.60
2023-04-05T19:17:46.158Z,19.60
2023-04-05T19:21:08.840Z,19.60
2023-04-05T19:24:31.174Z,19.60
2023-04-05T19:27:54.897Z,19.70
2023-04-05T19:31:17.222Z,19.70
2023-04-05T19:34:39.782Z,19.70
2023-04-05T19:38:04.086Z,19.70
2023-04-05T19:41:26.537Z,19.70
2023-04-05T19:44:57.907Z,19.70
2023-04-05T19:48:44.682Z,19.70
2023-04-05T19:52:33.739Z,19.70
2023-04-05T19:55:56.368Z,19.70
2023-04-05T19:59:32.880Z,19.70
2023-04-05T20:02:55.402Z,19.70
2023-04-05T20:06:18.303Z,19.60
2023-04-05T20:09:41.078Z,19.60
2023-04-05T20:13:04.823Z,19.70
2023-04-05T20:16:29.946Z,19.60
2023-04-05T20:20:00.000Z,19.60
2023-04-05T20:23:23.058Z,19.60
2023-04-05T20:26:46.106Z,19.60
2023-04-05T20:30:10.529Z,19.60
2023-04-05T20:34:09.138Z,19.60
2023-04-05T20:37:31.414Z,19.60
2023-04-05T20:40:53.716Z,19.60
2023-04-05T20:44:16.335Z,19.60
2023-04-05T20:47:38.628Z,19.60
2023-04-05T20:51:02.323Z,19.60
2023-04-05T20:54:24.757Z,19.50
2023-04-05T20:57:47.114Z,19.50
2023-04-05T21:01:10.405Z,19.50
2023-04-05T21:04:34.645Z,19.50
2023-04-05T21:07:57.397Z,19.50
2023-04-05T21:11:19.712Z,19.50
2023-04-05T21:14:41.963Z,19.50
2023-04-05T21:18:06.089Z,19.50
2023-04-05T21:21:28.642Z,19.60
2023-04-05T21:24:50.957Z,19.50
2023-04-05T21:28:14.231Z,19.50
2023-04-05T21:31:36.563Z,19.50
2023-04-05T21:34:58.888Z,19.50
2023-04-05T21:38:21.190Z,19.60
2023-04-05T21:41:43.533Z,19.60
2023-04-05T21:45:07.755Z,19.60
2023-04-05T21:48:30.003Z,19.50
2023-04-05T21:51:52.323Z,19.50
2023-04-05T21:55:14.988Z,19.50
2023-04-05T21:58:37.366Z,19.50
2023-04-05T22:02:01.511Z,19.40
2023-04-05T22:05:34.556Z,19.40
2023-04-05T22:08:59.988Z,19.40
2023-04-05T22:12:22.500Z,19.40
2023-04-05T22:15:44.954Z,19.40
2023-04-05T22:19:07.854Z,19.40
2023-04-05T22:22:30.262Z,19.40
2023-04-05T22:25:53.387Z,19.40
2023-04-05T22:29:15.677Z,19.40
2023-04-05T22:32:38.178Z,19.40
2023-04-05T22:36:00.808Z,19.40
2023-04-05T22:39:23.164Z,19.40
2023-04-05T22:42:46.449Z,19.30
2023-04-05T22:46:08.847Z,19.30
2023-04-05T22:49:31.790Z,19.30
2023-04-05T22:52:54.048Z,19.30
2023-04-05T22:56:18.785Z,19.30
2023-04-05T22:59:41.293Z,19.30
2023-04-05T23:03:04.288Z,19.30
2023-04-05T23:06:26.567Z,19.30
2023-04-05T23:09:48.850Z,19.30
2023-04-05T23:13:11.644Z,19.30
2023-04-05T23:16:33.929Z,19.30
2023-04-05T23:19:56.179Z,19.30
2023-04-05T23:23:18.487Z,19.30
2023-04-05T23:26:40.880Z,19.30
2023-04-05T23:30:03.278Z,19.20
2023-04-05T23:33:25.634Z,19.20
2023-04-05T23:36:48.032Z,19.20
2023-04-05T23:40:11.223Z,19.20
2023-04-05T23:43:33.648Z,19.20
2023-04-05T23:46:56.077Z,19.20
2023-04-05T23:50:18.655Z,19.20
2023-04-05T23:53:41.260Z,19.20
2023-04-05T23:57:03.504Z,19.20
